sensor_id;sensor_type;location;lat;lon;timestamp;P1;durP1;ratioP1;P2;durP2;ratioP2
8293;SDS011;4185;41.506;24.938;2022-09-14T00:02:21;3.80;;;2.73;;
8293;SDS011;4185;41.506;24.938;2022-09-14T00:04:48;2.93;;;2.53;;
8293;SDS011;4185;41.506;24.938;2022-09-14T00:07:15;2.80;;;2.50;;
8293;SDS011;4185;41.506;24.938;2022-09-14T00:09:42;3.60;;;2.73;;
8293;SDS011;4185;41.506;24.938;2022-09-14T00:12:09;2.70;;;2.50;;
8293;SDS011;4185;41.506;24.938;2022-09-14T00:14:36;3.40;;;2.80;;
8293;SDS011;4185;41.506;24.938;2022-09-14T00:17:03;3.20;;;2.90;;
8293;SDS011;4185;41.506;24.938;2022-09-14T00:19:31;3.30;;;2.70;;
8293;SDS011;4185;41.506;24.938;2022-09-14T00:21:58;2.93;;;2.73;;
8293;SDS011;4185;41.506;24.938;2022-09-14T00:24:26;4.50;;;2.50;;
8293;SDS011;4185;41.506;24.938;2022-09-14T00:26:55;3.43;;;3.10;;
8293;SDS011;4185;41.506;24.938;2022-09-14T00:29:22;3.00;;;2.70;;
8293;SDS011;4185;41.506;24.938;2022-09-14T00:31:49;3.40;;;2.50;;
8293;SDS011;4185;41.506;24.938;2022-09-14T00:34:16;3.90;;;2.97;;
8293;SDS011;4185;41.506;24.938;2022-09-14T00:36:46;2.80;;;2.60;;
8293;SDS011;4185;41.506;24.938;2022-09-14T00:39:15;2.93;;;2.73;;
8293;SDS011;4185;41.506;24.938;2022-09-14T00:41:43;3.13;;;2.77;;
8293;SDS011;4185;41.506;24.938;2022-09-14T00:47:16;3.03;;;2.63;;
8293;SDS011;4185;41.506;24.938;2022-09-14T00:49:43;3.10;;;2.80;;
8293;SDS011;4185;41.506;24.938;2022-09-14T00:52:13;2.53;;;2.33;;
8293;SDS011;4185;41.506;24.938;2022-09-14T00:54:44;3.27;;;2.37;;
8293;SDS011;4185;41.506;24.938;2022-09-14T00:57:13;3.43;;;2.50;;
8293;SDS011;4185;41.506;24.938;2022-09-14T00:59:40;3.10;;;2.63;;
8293;SDS011;4185;41.506;24.938;2022-09-14T01:02:09;3.33;;;2.60;;
8293;SDS011;4185;41.506;24.938;2022-09-14T01:04:39;3.43;;;2.70;;
8293;SDS011;4185;41.506;24.938;2022-09-14T01:07:07;2.97;;;2.67;;
8293;SDS011;4185;41.506;24.938;2022-09-14T01:09:44;3.47;;;3.17;;
8293;SDS011;4185;41.506;24.938;2022-09-14T01:12:21;3.30;;;2.80;;
8293;SDS011;4185;41.506;24.938;2022-09-14T01:14:56;4.50;;;2.90;;
8293;SDS011;4185;41.506;24.938;2022-09-14T01:17:29;3.57;;;3.27;;
8293;SDS011;4185;41.506;24.938;2022-09-14T01:20:07;3.27;;;2.97;;
8293;SDS011;4185;41.506;24.938;2022-09-14T01:22:46;5.07;;;2.63;;
8293;SDS011;4185;41.506;24.938;2022-09-14T01:25:20;3.20;;;2.90;;
8293;SDS011;4185;41.506;24.938;2022-09-14T01:28:01;3.23;;;2.97;;
8293;SDS011;4185;41.506;24.938;2022-09-14T01:30:35;9.43;;;5.83;;
8293;SDS011;4185;41.506;24.938;2022-09-14T01:33:08;6.17;;;4.47;;
8293;SDS011;4185;41.506;24.938;2022-09-14T01:35:41;4.87;;;3.40;;
8293;SDS011;4185;41.506;24.938;2022-09-14T01:38:13;5.20;;;3.70;;
8293;SDS011;4185;41.506;24.938;2022-09-14T01:40:46;3.83;;;3.13;;
8293;SDS011;4185;41.506;24.938;2022-09-14T01:43:17;3.93;;;3.50;;
8293;SDS011;4185;41.506;24.938;2022-09-14T01:45:48;3.30;;;3.00;;
8293;SDS011;4185;41.506;24.938;2022-09-14T01:48:18;3.50;;;3.17;;
8293;SDS011;4185;41.506;24.938;2022-09-14T01:50:49;4.40;;;3.20;;
8293;SDS011;4185;41.506;24.938;2022-09-14T01:53:21;3.27;;;2.97;;
8293;SDS011;4185;41.506;24.938;2022-09-14T01:55:53;3.57;;;3.00;;
8293;SDS011;4185;41.506;24.938;2022-09-14T01:58:25;4.87;;;3.97;;
8293;SDS011;4185;41.506;24.938;2022-09-14T02:00:59;3.00;;;2.70;;
8293;SDS011;4185;41.506;24.938;2022-09-14T02:03:30;3.30;;;3.00;;
8293;SDS011;4185;41.506;24.938;2022-09-14T02:06:04;3.00;;;2.80;;
8293;SDS011;4185;41.506;24.938;2022-09-14T02:08:36;3.20;;;2.90;;
8293;SDS011;4185;41.506;24.938;2022-09-14T02:11:03;3.03;;;2.77;;
8293;SDS011;4185;41.506;24.938;2022-09-14T02:13:32;2.80;;;2.60;;
8293;SDS011;4185;41.506;24.938;2022-09-14T02:15:59;3.30;;;3.00;;
8293;SDS011;4185;41.506;24.938;2022-09-14T02:18:26;2.87;;;2.67;;
8293;SDS011;4185;41.506;24.938;2022-09-14T02:20:53;2.90;;;2.67;;
8293;SDS011;4185;41.506;24.938;2022-09-14T02:23:24;3.20;;;2.90;;
8293;SDS011;4185;41.506;24.938;2022-09-14T02:25:51;3.50;;;3.20;;
8293;SDS011;4185;41.506;24.938;2022-09-14T02:28:18;3.43;;;3.13;;
8293;SDS011;4185;41.506;24.938;2022-09-14T02:30:50;6.43;;;3.10;;
8293;SDS011;4185;41.506;24.938;2022-09-14T02:33:23;3.30;;;3.00;;
8293;SDS011;4185;41.506;24.938;2022-09-14T02:35:59;3.50;;;3.20;;
8293;SDS011;4185;41.506;24.938;2022-09-14T02:38:34;4.53;;;3.20;;
8293;SDS011;4185;41.506;24.938;2022-09-14T02:41:06;3.93;;;3.53;;
8293;SDS011;4185;41.506;24.938;2022-09-14T02:43:42;4.00;;;2.90;;
8293;SDS011;4185;41.506;24.938;2022-09-14T02:46:18;4.87;;;3.27;;
8293;SDS011;4185;41.506;24.938;2022-09-14T02:48:53;3.40;;;3.10;;
8293;SDS011;4185;41.506;24.938;2022-09-14T02:51:29;3.50;;;3.20;;
8293;SDS011;4185;41.506;24.938;2022-09-14T02:53:59;3.70;;;3.20;;
8293;SDS011;4185;41.506;24.938;2022-09-14T02:56:30;2.97;;;2.77;;
8293;SDS011;4185;41.506;24.938;2022-09-14T02:58:58;4.33;;;3.00;;
8293;SDS011;4185;41.506;24.938;2022-09-14T03:01:26;3.30;;;3.00;;
8293;SDS011;4185;41.506;24.938;2022-09-14T03:03:53;4.70;;;3.23;;
8293;SDS011;4185;41.506;24.938;2022-09-14T03:06:20;3.30;;;3.00;;
8293;SDS011;4185;41.506;24.938;2022-09-14T03:08:47;3.87;;;3.00;;
8293;SDS011;4185;41.506;24.938;2022-09-14T03:11:15;3.50;;;2.93;;
8293;SDS011;4185;41.506;24.938;2022-09-14T03:13:41;3.87;;;3.40;;
8293;SDS011;4185;41.506;24.938;2022-09-14T03:16:09;5.20;;;3.40;;
8293;SDS011;4185;41.506;24.938;2022-09-14T03:18:38;3.60;;;3.30;;
8293;SDS011;4185;41.506;24.938;2022-09-14T03:21:06;4.07;;;3.33;;
8293;SDS011;4185;41.506;24.938;2022-09-14T03:23:35;3.30;;;3.00;;
8293;SDS011;4185;41.506;24.938;2022-09-14T03:26:05;4.20;;;3.30;;
8293;SDS011;4185;41.506;24.938;2022-09-14T03:28:33;3.47;;;3.17;;
8293;SDS011;4185;41.506;24.938;2022-09-14T03:31:00;3.77;;;3.37;;
8293;SDS011;4185;41.506;24.938;2022-09-14T03:33:28;4.40;;;3.30;;
8293;SDS011;4185;41.506;24.938;2022-09-14T03:35:56;6.63;;;4.10;;
8293;SDS011;4185;41.506;24.938;2022-09-14T03:38:23;3.67;;;3.37;;
8293;SDS011;4185;41.506;24.938;2022-09-14T03:40:54;3.80;;;3.50;;
8293;SDS011;4185;41.506;24.938;2022-09-14T03:43:21;4.13;;;3.50;;
8293;SDS011;4185;41.506;24.938;2022-09-14T03:45:47;4.07;;;3.70;;
8293;SDS011;4185;41.506;24.938;2022-09-14T03:48:14;3.53;;;3.23;;
8293;SDS011;4185;41.506;24.938;2022-09-14T03:50:41;3.50;;;3.20;;
8293;SDS011;4185;41.506;24.938;2022-09-14T03:53:09;4.23;;;3.50;;
8293;SDS011;4185;41.506;24.938;2022-09-14T03:55:38;3.87;;;3.57;;
8293;SDS011;4185;41.506;24.938;2022-09-14T03:58:05;5.00;;;4.03;;
8293;SDS011;4185;41.506;24.938;2022-09-14T04:00:32;3.87;;;3.47;;
8293;SDS011;4185;41.506;24.938;2022-09-14T04:02:59;4.03;;;3.63;;
8293;SDS011;4185;41.506;24.938;2022-09-14T04:05:25;3.43;;;3.13;;
8293;SDS011;4185;41.506;24.938;2022-09-14T04:07:52;3.80;;;3.40;;
8293;SDS011;4185;41.506;24.938;2022-09-14T04:10:20;3.83;;;3.53;;
8293;SDS011;4185;41.506;24.938;2022-09-14T04:12:47;3.87;;;3.57;;
8293;SDS011;4185;41.506;24.938;2022-09-14T04:15:14;3.40;;;3.10;;
8293;SDS011;4185;41.506;24.938;2022-09-14T04:17:41;3.50;;;3.20;;
8293;SDS011;4185;41.506;24.938;2022-09-14T04:20:08;3.93;;;3.40;;
8293;SDS011;4185;41.506;24.938;2022-09-14T04:22:35;4.17;;;3.63;;
8293;SDS011;4185;41.506;24.938;2022-09-14T04:25:01;6.30;;;4.37;;
8293;SDS011;4185;41.506;24.938;2022-09-14T04:27:30;5.20;;;4.07;;
8293;SDS011;4185;41.506;24.938;2022-09-14T04:29:57;4.73;;;3.80;;
8293;SDS011;4185;41.506;24.938;2022-09-14T04:32:24;5.97;;;4.67;;
8293;SDS011;4185;41.506;24.938;2022-09-14T04:34:51;9.33;;;6.23;;
8293;SDS011;4185;41.506;24.938;2022-09-14T04:37:17;6.77;;;4.97;;
8293;SDS011;4185;41.506;24.938;2022-09-14T04:39:44;4.27;;;3.83;;
8293;SDS011;4185;41.506;24.938;2022-09-14T04:42:11;4.30;;;3.77;;
8293;SDS011;4185;41.506;24.938;2022-09-14T04:44:39;4.63;;;4.23;;
8293;SDS011;4185;41.506;24.938;2022-09-14T04:47:06;6.23;;;4.20;;
8293;SDS011;4185;41.506;24.938;2022-09-14T04:49:33;5.07;;;4.20;;
8293;SDS011;4185;41.506;24.938;2022-09-14T04:51:59;5.10;;;4.13;;
8293;SDS011;4185;41.506;24.938;2022-09-14T04:54:26;5.43;;;4.27;;
8293;SDS011;4185;41.506;24.938;2022-09-14T04:56:53;4.00;;;3.70;;
8293;SDS011;4185;41.506;24.938;2022-09-14T04:59:20;4.70;;;4.30;;
8293;SDS011;4185;41.506;24.938;2022-09-14T05:01:49;5.80;;;4.07;;
8293;SDS011;4185;41.506;24.938;2022-09-14T05:04:15;4.33;;;3.77;;
8293;SDS011;4185;41.506;24.938;2022-09-14T05:06:43;4.27;;;3.87;;
8293;SDS011;4185;41.506;24.938;2022-09-14T05:09:11;5.23;;;3.93;;
8293;SDS011;4185;41.506;24.938;2022-09-14T05:11:39;4.60;;;3.80;;
8293;SDS011;4185;41.506;24.938;2022-09-14T05:14:06;4.27;;;3.87;;
8293;SDS011;4185;41.506;24.938;2022-09-14T05:16:33;3.53;;;3.23;;
8293;SDS011;4185;41.506;24.938;2022-09-14T05:19:03;5.60;;;4.63;;
8293;SDS011;4185;41.506;24.938;2022-09-14T05:21:31;4.23;;;3.80;;
8293;SDS011;4185;41.506;24.938;2022-09-14T05:24:00;4.57;;;4.10;;
8293;SDS011;4185;41.506;24.938;2022-09-14T05:26:29;4.00;;;3.60;;
8293;SDS011;4185;41.506;24.938;2022-09-14T05:28:57;4.43;;;4.03;;
8293;SDS011;4185;41.506;24.938;2022-09-14T05:31:26;4.93;;;4.43;;
8293;SDS011;4185;41.506;24.938;2022-09-14T05:33:54;4.53;;;4.13;;
8293;SDS011;4185;41.506;24.938;2022-09-14T05:36:22;4.93;;;3.50;;
8293;SDS011;4185;41.506;24.938;2022-09-14T05:38:49;4.43;;;4.03;;
8293;SDS011;4185;41.506;24.938;2022-09-14T05:41:17;4.40;;;4.00;;
8293;SDS011;4185;41.506;24.938;2022-09-14T05:43:44;4.13;;;3.83;;
8293;SDS011;4185;41.506;24.938;2022-09-14T05:46:11;4.90;;;4.50;;
8293;SDS011;4185;41.506;24.938;2022-09-14T05:48:39;5.47;;;4.70;;
8293;SDS011;4185;41.506;24.938;2022-09-14T05:51:07;5.20;;;4.63;;
8293;SDS011;4185;41.506;24.938;2022-09-14T05:53:37;5.23;;;4.73;;
8293;SDS011;4185;41.506;24.938;2022-09-14T05:56:06;6.50;;;4.90;;
8293;SDS011;4185;41.506;24.938;2022-09-14T05:58:34;5.07;;;4.40;;
8293;SDS011;4185;41.506;24.938;2022-09-14T06:01:06;4.33;;;3.93;;
8293;SDS011;4185;41.506;24.938;2022-09-14T06:03:34;4.70;;;4.30;;
8293;SDS011;4185;41.506;24.938;2022-09-14T06:06:02;5.10;;;4.60;;
8293;SDS011;4185;41.506;24.938;2022-09-14T06:08:30;7.47;;;6.00;;
8293;SDS011;4185;41.506;24.938;2022-09-14T06:11:02;6.47;;;5.87;;
8293;SDS011;4185;41.506;24.938;2022-09-14T06:13:29;8.97;;;6.33;;
8293;SDS011;4185;41.506;24.938;2022-09-14T06:15:59;7.63;;;6.00;;
8293;SDS011;4185;41.506;24.938;2022-09-14T06:18:28;6.10;;;5.50;;
8293;SDS011;4185;41.506;24.938;2022-09-14T06:20:55;5.57;;;5.07;;
8293;SDS011;4185;41.506;24.938;2022-09-14T06:23:22;5.93;;;4.77;;
8293;SDS011;4185;41.506;24.938;2022-09-14T06:25:51;7.93;;;6.57;;
8293;SDS011;4185;41.506;24.938;2022-09-14T06:28:19;5.90;;;4.90;;
8293;SDS011;4185;41.506;24.938;2022-09-14T06:30:46;6.43;;;5.30;;
8293;SDS011;4185;41.506;24.938;2022-09-14T06:33:13;5.63;;;5.13;;
8293;SDS011;4185;41.506;24.938;2022-09-14T06:35:40;5.07;;;4.57;;
8293;SDS011;4185;41.506;24.938;2022-09-14T06:38:07;4.70;;;4.10;;
8293;SDS011;4185;41.506;24.938;2022-09-14T06:40:34;4.50;;;4.10;;
8293;SDS011;4185;41.506;24.938;2022-09-14T06:43:01;4.80;;;4.27;;
8293;SDS011;4185;41.506;24.938;2022-09-14T06:45:29;5.80;;;4.23;;
8293;SDS011;4185;41.506;24.938;2022-09-14T06:47:57;4.57;;;4.17;;
8293;SDS011;4185;41.506;24.938;2022-09-14T06:50:24;4.97;;;3.67;;
8293;SDS011;4185;41.506;24.938;2022-09-14T06:52:51;4.43;;;3.90;;
8293;SDS011;4185;41.506;24.938;2022-09-14T06:55:18;4.73;;;4.33;;
8293;SDS011;4185;41.506;24.938;2022-09-14T06:57:46;5.07;;;4.50;;
8293;SDS011;4185;41.506;24.938;2022-09-14T07:00:14;4.87;;;4.20;;
8293;SDS011;4185;41.506;24.938;2022-09-14T07:02:42;4.53;;;4.13;;
8293;SDS011;4185;41.506;24.938;2022-09-14T07:05:09;4.50;;;4.10;;
8293;SDS011;4185;41.506;24.938;2022-09-14T07:07:36;5.30;;;4.80;;
8293;SDS011;4185;41.506;24.938;2022-09-14T07:10:03;4.70;;;4.30;;
8293;SDS011;4185;41.506;24.938;2022-09-14T07:12:30;5.07;;;4.10;;
8293;SDS011;4185;41.506;24.938;2022-09-14T07:14:57;5.20;;;4.07;;
8293;SDS011;4185;41.506;24.938;2022-09-14T07:17:24;5.00;;;4.10;;
8293;SDS011;4185;41.506;24.938;2022-09-14T07:19:52;4.20;;;3.80;;
8293;SDS011;4185;41.506;24.938;2022-09-14T07:22:18;4.33;;;3.93;;
8293;SDS011;4185;41.506;24.938;2022-09-14T07:24:45;4.90;;;4.27;;
8293;SDS011;4185;41.506;24.938;2022-09-14T07:27:12;4.27;;;3.87;;
8293;SDS011;4185;41.506;24.938;2022-09-14T07:29:39;4.20;;;3.90;;
8293;SDS011;4185;41.506;24.938;2022-09-14T07:32:06;4.60;;;4.20;;
8293;SDS011;4185;41.506;24.938;2022-09-14T07:34:32;5.23;;;4.73;;
8293;SDS011;4185;41.506;24.938;2022-09-14T07:37:00;4.00;;;3.70;;
8293;SDS011;4185;41.506;24.938;2022-09-14T07:39:27;5.33;;;4.53;;
8293;SDS011;4185;41.506;24.938;2022-09-14T07:41:54;4.37;;;3.97;;
8293;SDS011;4185;41.506;24.938;2022-09-14T07:44:21;4.60;;;4.20;;
8293;SDS011;4185;41.506;24.938;2022-09-14T07:46:48;4.67;;;4.23;;
8293;SDS011;4185;41.506;24.938;2022-09-14T07:49:15;5.73;;;4.37;;
8293;SDS011;4185;41.506;24.938;2022-09-14T07:51:43;5.70;;;3.83;;
8293;SDS011;4185;41.506;24.938;2022-09-14T07:54:12;4.83;;;4.20;;
8293;SDS011;4185;41.506;24.938;2022-09-14T07:56:40;4.87;;;4.37;;
8293;SDS011;4185;41.506;24.938;2022-09-14T07:59:08;4.57;;;4.17;;
8293;SDS011;4185;41.506;24.938;2022-09-14T08:01:36;4.57;;;4.03;;
8293;SDS011;4185;41.506;24.938;2022-09-14T08:04:03;4.80;;;4.30;;
8293;SDS011;4185;41.506;24.938;2022-09-14T08:06:30;5.67;;;4.47;;
8293;SDS011;4185;41.506;24.938;2022-09-14T08:08:57;4.57;;;4.17;;
8293;SDS011;4185;41.506;24.938;2022-09-14T08:11:26;4.30;;;3.90;;
8293;SDS011;4185;41.506;24.938;2022-09-14T08:13:55;4.53;;;3.83;;
8293;SDS011;4185;41.506;24.938;2022-09-14T08:16:24;4.47;;;3.87;;
8293;SDS011;4185;41.506;24.938;2022-09-14T08:18:53;5.77;;;3.53;;
8293;SDS011;4185;41.506;24.938;2022-09-14T08:21:21;3.90;;;3.50;;
8293;SDS011;4185;41.506;24.938;2022-09-14T08:23:48;3.90;;;3.50;;
8293;SDS011;4185;41.506;24.938;2022-09-14T08:26:16;5.80;;;5.30;;
8293;SDS011;4185;41.506;24.938;2022-09-14T08:28:46;4.60;;;3.20;;
8293;SDS011;4185;41.506;24.938;2022-09-14T08:31:14;3.70;;;3.40;;
8293;SDS011;4185;41.506;24.938;2022-09-14T08:33:43;3.50;;;3.20;;
8293;SDS011;4185;41.506;24.938;2022-09-14T08:36:12;4.27;;;3.30;;
8293;SDS011;4185;41.506;24.938;2022-09-14T08:38:40;3.50;;;3.20;;
8293;SDS011;4185;41.506;24.938;2022-09-14T08:41:15;3.80;;;3.50;;
8293;SDS011;4185;41.506;24.938;2022-09-14T08:43:49;3.03;;;2.83;;
8293;SDS011;4185;41.506;24.938;2022-09-14T08:46:19;3.30;;;3.00;;
8293;SDS011;4185;41.506;24.938;2022-09-14T08:48:54;3.60;;;3.30;;
8293;SDS011;4185;41.506;24.938;2022-09-14T08:51:21;4.30;;;3.90;;
8293;SDS011;4185;41.506;24.938;2022-09-14T08:53:48;2.87;;;2.67;;
8293;SDS011;4185;41.506;24.938;2022-09-14T08:56:18;3.30;;;3.00;;
8293;SDS011;4185;41.506;24.938;2022-09-14T08:58:53;3.43;;;3.10;;
8293;SDS011;4185;41.506;24.938;2022-09-14T09:01:30;3.27;;;2.97;;
8293;SDS011;4185;41.506;24.938;2022-09-14T09:04:09;2.87;;;2.57;;
8293;SDS011;4185;41.506;24.938;2022-09-14T09:06:50;2.80;;;2.60;;
8293;SDS011;4185;41.506;24.938;2022-09-14T09:09:24;2.97;;;2.77;;
8293;SDS011;4185;41.506;24.938;2022-09-14T09:11:56;2.97;;;2.77;;
8293;SDS011;4185;41.506;24.938;2022-09-14T09:14:28;4.30;;;2.60;;
8293;SDS011;4185;41.506;24.938;2022-09-14T09:16:59;2.57;;;2.37;;
8293;SDS011;4185;41.506;24.938;2022-09-14T09:19:29;2.63;;;2.43;;
8293;SDS011;4185;41.506;24.938;2022-09-14T09:22:00;2.50;;;2.30;;
8293;SDS011;4185;41.506;24.938;2022-09-14T09:24:31;2.47;;;2.27;;
8293;SDS011;4185;41.506;24.938;2022-09-14T09:27:06;2.40;;;2.20;;
8293;SDS011;4185;41.506;24.938;2022-09-14T09:29:36;2.53;;;2.33;;
8293;SDS011;4185;41.506;24.938;2022-09-14T09:32:03;2.53;;;2.33;;
8293;SDS011;4185;41.506;24.938;2022-09-14T09:34:33;2.97;;;2.47;;
8293;SDS011;4185;41.506;24.938;2022-09-14T09:37:00;2.37;;;2.17;;
8293;SDS011;4185;41.506;24.938;2022-09-14T09:39:28;2.60;;;2.40;;
8293;SDS011;4185;41.506;24.938;2022-09-14T09:41:57;2.50;;;2.30;;
8293;SDS011;4185;41.506;24.938;2022-09-14T09:44:27;2.40;;;2.20;;
8293;SDS011;4185;41.506;24.938;2022-09-14T09:46:56;3.20;;;2.60;;
8293;SDS011;4185;41.506;24.938;2022-09-14T09:49:26;2.30;;;2.10;;
8293;SDS011;4185;41.506;24.938;2022-09-14T09:51:57;2.53;;;2.30;;
8293;SDS011;4185;41.506;24.938;2022-09-14T09:54:32;2.43;;;2.23;;
8293;SDS011;4185;41.506;24.938;2022-09-14T09:57:00;2.40;;;2.20;;
8293;SDS011;4185;41.506;24.938;2022-09-14T09:59:30;2.60;;;2.40;;
8293;SDS011;4185;41.506;24.938;2022-09-14T10:04:58;3.43;;;2.50;;
8293;SDS011;4185;41.506;24.938;2022-09-14T10:07:27;2.37;;;2.17;;
8293;SDS011;4185;41.506;24.938;2022-09-14T10:09:57;4.30;;;2.20;;
8293;SDS011;4185;41.506;24.938;2022-09-14T10:12:25;2.50;;;2.30;;
8293;SDS011;4185;41.506;24.938;2022-09-14T10:15:04;3.27;;;2.50;;
8293;SDS011;4185;41.506;24.938;2022-09-14T10:17:40;2.57;;;1.97;;
8293;SDS011;4185;41.506;24.938;2022-09-14T10:20:19;2.47;;;2.20;;
8293;SDS011;4185;41.506;24.938;2022-09-14T10:22:48;3.20;;;2.20;;
8293;SDS011;4185;41.506;24.938;2022-09-14T10:25:22;4.90;;;2.77;;
8293;SDS011;4185;41.506;24.938;2022-09-14T10:27:55;2.50;;;2.30;;
8293;SDS011;4185;41.506;24.938;2022-09-14T10:30:25;2.43;;;2.23;;
8293;SDS011;4185;41.506;24.938;2022-09-14T10:32:56;2.53;;;2.33;;
8293;SDS011;4185;41.506;24.938;2022-09-14T10:35:27;2.30;;;2.10;;
8293;SDS011;4185;41.506;24.938;2022-09-14T10:40:57;2.47;;;2.27;;
8293;SDS011;4185;41.506;24.938;2022-09-14T10:43:33;3.10;;;2.30;;
8293;SDS011;4185;41.506;24.938;2022-09-14T10:46:11;2.57;;;2.17;;
8293;SDS011;4185;41.506;24.938;2022-09-14T10:51:43;2.40;;;2.20;;
8293;SDS011;4185;41.506;24.938;2022-09-14T10:54:27;2.20;;;2.00;;
8293;SDS011;4185;41.506;24.938;2022-09-14T10:57:09;2.50;;;2.30;;
8293;SDS011;4185;41.506;24.938;2022-09-14T10:59:45;2.47;;;2.27;;
8293;SDS011;4185;41.506;24.938;2022-09-14T11:02:25;2.43;;;2.23;;
8293;SDS011;4185;41.506;24.938;2022-09-14T11:05:17;2.23;;;2.03;;
8293;SDS011;4185;41.506;24.938;2022-09-14T11:07:54;2.50;;;2.30;;
8293;SDS011;4185;41.506;24.938;2022-09-14T11:10:32;2.43;;;2.23;;
8293;SDS011;4185;41.506;24.938;2022-09-14T11:13:10;2.67;;;2.43;;
8293;SDS011;4185;41.506;24.938;2022-09-14T11:15:53;2.53;;;1.90;;
8293;SDS011;4185;41.506;24.938;2022-09-14T11:18:32;3.63;;;1.90;;
8293;SDS011;4185;41.506;24.938;2022-09-14T11:21:14;2.73;;;2.53;;
8293;SDS011;4185;41.506;24.938;2022-09-14T11:23:46;2.20;;;2.00;;
8293;SDS011;4185;41.506;24.938;2022-09-14T11:26:18;2.40;;;2.20;;
8293;SDS011;4185;41.506;24.938;2022-09-14T11:28:56;3.80;;;2.60;;
8293;SDS011;4185;41.506;24.938;2022-09-14T11:31:29;2.67;;;2.47;;
8293;SDS011;4185;41.506;24.938;2022-09-14T11:34:12;2.70;;;2.30;;
8293;SDS011;4185;41.506;24.938;2022-09-14T11:36:47;4.30;;;3.00;;
8293;SDS011;4185;41.506;24.938;2022-09-14T11:39:19;3.00;;;2.57;;
8293;SDS011;4185;41.506;24.938;2022-09-14T11:41:50;2.60;;;2.40;;
8293;SDS011;4185;41.506;24.938;2022-09-14T11:44:20;3.28;;;2.80;;
8293;SDS011;4185;41.506;24.938;2022-09-14T11:46:50;2.83;;;2.40;;
8293;SDS011;4185;41.506;24.938;2022-09-14T11:49:24;2.97;;;2.72;;
8293;SDS011;4185;41.506;24.938;2022-09-14T11:51:57;3.28;;;2.90;;
8293;SDS011;4185;41.506;24.938;2022-09-14T11:54:30;2.95;;;2.70;;
8293;SDS011;4185;41.506;24.938;2022-09-14T11:56:57;3.20;;;3.00;;
8293;SDS011;4185;41.506;24.938;2022-09-14T12:05:38;3.10;;;2.80;;
8293;SDS011;4185;41.506;24.938;2022-09-14T12:14:12;4.47;;;2.63;;
8293;SDS011;4185;41.506;24.938;2022-09-14T12:19:38;3.20;;;2.90;;
8293;SDS011;4185;41.506;24.938;2022-09-14T12:22:26;3.53;;;2.80;;
8293;SDS011;4185;41.506;24.938;2022-09-14T12:25:03;3.75;;;2.67;;
8293;SDS011;4185;41.506;24.938;2022-09-14T12:27:41;3.50;;;3.20;;
8293;SDS011;4185;41.506;24.938;2022-09-14T12:39:21;2.92;;;2.70;;
8293;SDS011;4185;41.506;24.938;2022-09-14T12:44:50;3.63;;;3.33;;
8293;SDS011;4185;41.506;24.938;2022-09-14T12:50:04;3.10;;;2.90;;
8293;SDS011;4185;41.506;24.938;2022-09-14T12:52:38;3.65;;;2.80;;
8293;SDS011;4185;41.506;24.938;2022-09-14T12:55:16;4.10;;;3.03;;
8293;SDS011;4185;41.506;24.938;2022-09-14T12:57:54;4.43;;;3.03;;
8293;SDS011;4185;41.506;24.938;2022-09-14T13:00:27;3.10;;;2.90;;
8293;SDS011;4185;41.506;24.938;2022-09-14T13:03:13;3.17;;;2.90;;
8293;SDS011;4185;41.506;24.938;2022-09-14T13:05:52;3.10;;;2.90;;
8293;SDS011;4185;41.506;24.938;2022-09-14T13:08:21;3.58;;;2.90;;
8293;SDS011;4185;41.506;24.938;2022-09-14T13:10:50;3.25;;;2.95;;
8293;SDS011;4185;41.506;24.938;2022-09-14T13:13:18;3.55;;;2.80;;
8293;SDS011;4185;41.506;24.938;2022-09-14T13:15:52;3.17;;;2.90;;
8293;SDS011;4185;41.506;24.938;2022-09-14T13:18:29;3.05;;;2.85;;
8293;SDS011;4185;41.506;24.938;2022-09-14T13:20:58;3.60;;;3.00;;
8293;SDS011;4185;41.506;24.938;2022-09-14T13:23:27;3.17;;;2.88;;
8293;SDS011;4185;41.506;24.938;2022-09-14T13:25:55;3.00;;;2.67;;
8293;SDS011;4185;41.506;24.938;2022-09-14T13:28:29;4.03;;;3.03;;
8293;SDS011;4185;41.506;24.938;2022-09-14T13:30:59;4.35;;;2.60;;
8293;SDS011;4185;41.506;24.938;2022-09-14T13:33:26;3.15;;;2.95;;
8293;SDS011;4185;41.506;24.938;2022-09-14T13:35:55;3.95;;;3.15;;
8293;SDS011;4185;41.506;24.938;2022-09-14T13:38:25;4.15;;;3.03;;
8293;SDS011;4185;41.506;24.938;2022-09-14T13:41:04;3.15;;;2.88;;
8293;SDS011;4185;41.506;24.938;2022-09-14T13:43:33;3.17;;;2.80;;
8293;SDS011;4185;41.506;24.938;2022-09-14T13:46:03;3.00;;;2.65;;
8293;SDS011;4185;41.506;24.938;2022-09-14T13:48:32;3.53;;;3.22;;
8293;SDS011;4185;41.506;24.938;2022-09-14T13:51:01;3.00;;;2.80;;
8293;SDS011;4185;41.506;24.938;2022-09-14T13:53:34;3.25;;;2.95;;
8293;SDS011;4185;41.506;24.938;2022-09-14T13:56:14;3.67;;;2.70;;
8293;SDS011;4185;41.506;24.938;2022-09-14T13:58:43;4.05;;;3.58;;
8293;SDS011;4185;41.506;24.938;2022-09-14T14:01:13;2.88;;;2.67;;
8293;SDS011;4185;41.506;24.938;2022-09-14T14:03:50;3.47;;;3.22;;
8293;SDS011;4185;41.506;24.938;2022-09-14T14:06:18;3.28;;;2.90;;
8293;SDS011;4185;41.506;24.938;2022-09-14T14:08:51;3.50;;;3.20;;
8293;SDS011;4185;41.506;24.938;2022-09-14T14:11:27;3.33;;;3.13;;
8293;SDS011;4185;41.506;24.938;2022-09-14T14:14:08;3.45;;;3.10;;
8293;SDS011;4185;41.506;24.938;2022-09-14T14:16:38;3.30;;;3.00;;
8293;SDS011;4185;41.506;24.938;2022-09-14T14:19:23;5.30;;;3.38;;
8293;SDS011;4185;41.506;24.938;2022-09-14T14:24:37;3.13;;;2.85;;
8293;SDS011;4185;41.506;24.938;2022-09-14T14:27:04;3.78;;;3.40;;
8293;SDS011;4185;41.506;24.938;2022-09-14T14:29:31;4.18;;;2.80;;
8293;SDS011;4185;41.506;24.938;2022-09-14T14:31:59;3.20;;;2.90;;
8293;SDS011;4185;41.506;24.938;2022-09-14T14:34:26;5.70;;;2.95;;
8293;SDS011;4185;41.506;24.938;2022-09-14T14:36:54;3.65;;;3.05;;
8293;SDS011;4185;41.506;24.938;2022-09-14T14:39:22;4.25;;;2.97;;
8293;SDS011;4185;41.506;24.938;2022-09-14T14:41:50;3.25;;;2.95;;
8293;SDS011;4185;41.506;24.938;2022-09-14T14:44:18;4.45;;;3.17;;
8293;SDS011;4185;41.506;24.938;2022-09-14T14:46:48;3.60;;;3.30;;
8293;SDS011;4185;41.506;24.938;2022-09-14T14:49:17;3.30;;;3.00;;
8293;SDS011;4185;41.506;24.938;2022-09-14T14:51:45;4.07;;;3.50;;
8293;SDS011;4185;41.506;24.938;2022-09-14T14:54:12;3.28;;;3.08;;
8293;SDS011;4185;41.506;24.938;2022-09-14T14:56:40;4.68;;;3.40;;
8293;SDS011;4185;41.506;24.938;2022-09-14T14:59:14;5.05;;;3.83;;
8293;SDS011;4185;41.506;24.938;2022-09-14T15:01:51;4.40;;;3.70;;
8293;SDS011;4185;41.506;24.938;2022-09-14T15:04:20;4.00;;;3.60;;
8293;SDS011;4185;41.506;24.938;2022-09-14T15:06:47;4.88;;;3.47;;
8293;SDS011;4185;41.506;24.938;2022-09-14T15:09:15;4.00;;;2.75;;
8293;SDS011;4185;41.506;24.938;2022-09-14T15:11:43;3.25;;;3.05;;
8293;SDS011;4185;41.506;24.938;2022-09-14T15:14:10;3.78;;;3.30;;
8293;SDS011;4185;41.506;24.938;2022-09-14T15:16:37;4.65;;;3.47;;
8293;SDS011;4185;41.506;24.938;2022-09-14T15:19:04;3.38;;;3.08;;
8293;SDS011;4185;41.506;24.938;2022-09-14T15:21:32;3.80;;;3.50;;
8293;SDS011;4185;41.506;24.938;2022-09-14T15:23:59;3.63;;;3.33;;
8293;SDS011;4185;41.506;24.938;2022-09-14T15:26:26;4.38;;;3.70;;
8293;SDS011;4185;41.506;24.938;2022-09-14T15:28:53;4.40;;;4.00;;
8293;SDS011;4185;41.506;24.938;2022-09-14T15:31:20;3.70;;;3.40;;
8293;SDS011;4185;41.506;24.938;2022-09-14T15:33:47;4.57;;;4.13;;
8293;SDS011;4185;41.506;24.938;2022-09-14T15:36:28;5.30;;;3.92;;
8293;SDS011;4185;41.506;24.938;2022-09-14T15:39:02;8.05;;;4.43;;
8293;SDS011;4185;41.506;24.938;2022-09-14T15:41:29;4.75;;;3.63;;
8293;SDS011;4185;41.506;24.938;2022-09-14T15:43:56;4.68;;;3.70;;
8293;SDS011;4185;41.506;24.938;2022-09-14T15:46:23;4.70;;;4.15;;
8293;SDS011;4185;41.506;24.938;2022-09-14T15:48:50;5.05;;;4.65;;
8293;SDS011;4185;41.506;24.938;2022-09-14T15:51:17;4.85;;;4.35;;
8293;SDS011;4185;41.506;24.938;2022-09-14T15:53:45;5.45;;;4.80;;
8293;SDS011;4185;41.506;24.938;2022-09-14T15:56:12;4.25;;;3.90;;
8293;SDS011;4185;41.506;24.938;2022-09-14T15:58:41;6.95;;;4.60;;
8293;SDS011;4185;41.506;24.938;2022-09-14T16:01:08;5.13;;;4.57;;
8293;SDS011;4185;41.506;24.938;2022-09-14T16:03:35;5.85;;;4.40;;